sensor_id;sensor_type;location;lat;lon;timestamp;temperature;humidity
23713;DHT22;12035;49.978;8.298;2022-12-24T00:01:11;13.80;75.30
23713;DHT22;12035;49.978;8.298;2022-12-24T00:06:09;13.80;74.30
23713;DHT22;12035;49.978;8.298;2022-12-24T00:11:10;13.80;75.30
23713;DHT22;12035;49.978;8.298;2022-12-24T00:16:09;13.70;73.50
23713;DHT22;12035;49.978;8.298;2022-12-24T00:21:06;13.70;73.00
23713;DHT22;12035;49.978;8.298;2022-12-24T00:26:03;13.70;72.90
23713;DHT22;12035;49.978;8.298;2022-12-24T00:31:06;13.70;72.90
23713;DHT22;12035;49.978;8.298;2022-12-24T00:36:06;13.60;71.80
23713;DHT22;12035;49.978;8.298;2022-12-24T00:41:05;13.60;72.10
23713;DHT22;12035;49.978;8.298;2022-12-24T00:46:20;13.60;71.80
23713;DHT22;12035;49.978;8.298;2022-12-24T00:51:17;13.60;71.70
23713;DHT22;12035;49.978;8.298;2022-12-24T00:56:14;13.60;71.80
23713;DHT22;12035;49.978;8.298;2022-12-24T01:01:12;13.60;71.80
23713;DHT22;12035;49.978;8.298;2022-12-24T01:06:12;13.50;71.80
23713;DHT22;12035;49.978;8.298;2022-12-24T01:11:12;13.50;71.30
23713;DHT22;12035;49.978;8.298;2022-12-24T01:16:13;13.50;71.30
23713;DHT22;12035;49.978;8.298;2022-12-24T01:21:14;13.50;71.50
23713;DHT22;12035;49.978;8.298;2022-12-24T01:26:11;13.50;71.70
23713;DHT22;12035;49.978;8.298;2022-12-24T01:31:12;13.50;71.80
23713;DHT22;12035;49.978;8.298;2022-12-24T01:36:12;13.40;71.60
23713;DHT22;12035;49.978;8.298;2022-12-24T01:41:14;13.40;71.90
23713;DHT22;12035;49.978;8.298;2022-12-24T01:46:31;13.40;72.00
23713;DHT22;12035;49.978;8.298;2022-12-24T01:51:33;13.40;72.30
23713;DHT22;12035;49.978;8.298;2022-12-24T01:56:32;13.40;72.30
23713;DHT22;12035;49.978;8.298;2022-12-24T02:01:31;13.30;72.40
23713;DHT22;12035;49.978;8.298;2022-12-24T02:06:30;13.30;72.60
23713;DHT22;12035;49.978;8.298;2022-12-24T02:11:27;13.30;72.60
23713;DHT22;12035;49.978;8.298;2022-12-24T02:16:35;13.30;72.70
23713;DHT22;12035;49.978;8.298;2022-12-24T02:21:47;13.20;72.60
23713;DHT22;12035;49.978;8.298;2022-12-24T02:32:32;13.10;72.70
23713;DHT22;12035;49.978;8.298;2022-12-24T02:37:34;13.10;73.00
23713;DHT22;12035;49.978;8.298;2022-12-24T02:42:37;13.10;73.10
23713;DHT22;12035;49.978;8.298;2022-12-24T02:47:38;13.10;73.30
23713;DHT22;12035;49.978;8.298;2022-12-24T02:52:38;13.10;74.30
23713;DHT22;12035;49.978;8.298;2022-12-24T02:57:47;13.10;73.50
23713;DHT22;12035;49.978;8.298;2022-12-24T03:03:10;13.10;73.70
23713;DHT22;12035;49.978;8.298;2022-12-24T03:08:23;13.10;73.70
23713;DHT22;12035;49.978;8.298;2022-12-24T03:13:28;13.10;74.50
23713;DHT22;12035;49.978;8.298;2022-12-24T03:18:28;13.10;73.80
23713;DHT22;12035;49.978;8.298;2022-12-24T03:23:25;13.10;73.80
23713;DHT22;12035;49.978;8.298;2022-12-24T03:28:25;13.00;74.00
23713;DHT22;12035;49.978;8.298;2022-12-24T03:33:23;13.00;74.20
23713;DHT22;12035;49.978;8.298;2022-12-24T03:38:21;13.00;74.30
23713;DHT22;12035;49.978;8.298;2022-12-24T03:43:18;13.00;74.70
23713;DHT22;12035;49.978;8.298;2022-12-24T03:48:15;13.00;74.60
23713;DHT22;12035;49.978;8.298;2022-12-24T03:53:12;13.00;74.80
23713;DHT22;12035;49.978;8.298;2022-12-24T03:58:10;13.00;75.10
23713;DHT22;12035;49.978;8.298;2022-12-24T04:03:07;13.00;75.00
23713;DHT22;12035;49.978;8.298;2022-12-24T04:08:04;13.00;75.30
23713;DHT22;12035;49.978;8.298;2022-12-24T04:13:01;13.00;75.40
23713;DHT22;12035;49.978;8.298;2022-12-24T04:17:59;13.00;75.20
23713;DHT22;12035;49.978;8.298;2022-12-24T04:22:56;13.00;75.30
23713;DHT22;12035;49.978;8.298;2022-12-24T04:27:53;13.00;74.90
23713;DHT22;12035;49.978;8.298;2022-12-24T04:32:50;13.00;75.30
23713;DHT22;12035;49.978;8.298;2022-12-24T04:37:48;13.10;74.80
23713;DHT22;12035;49.978;8.298;2022-12-24T04:42:45;13.10;75.20
23713;DHT22;12035;49.978;8.298;2022-12-24T04:47:42;13.10;74.60
23713;DHT22;12035;49.978;8.298;2022-12-24T04:52:39;13.10;74.60
23713;DHT22;12035;49.978;8.298;2022-12-24T04:57:37;13.10;74.60
23713;DHT22;12035;49.978;8.298;2022-12-24T05:02:34;13.10;74.90
23713;DHT22;12035;49.978;8.298;2022-12-24T05:07:32;13.10;74.70
23713;DHT22;12035;49.978;8.298;2022-12-24T05:12:30;13.00;75.10
23713;DHT22;12035;49.978;8.298;2022-12-24T05:17:28;13.00;75.10
23713;DHT22;12035;49.978;8.298;2022-12-24T05:22:25;13.00;75.30
23713;DHT22;12035;49.978;8.298;2022-12-24T05:27:39;12.90;75.40
23713;DHT22;12035;49.978;8.298;2022-12-24T05:32:38;13.00;75.70
23713;DHT22;12035;49.978;8.298;2022-12-24T05:37:35;13.00;76.00
23713;DHT22;12035;49.978;8.298;2022-12-24T05:42:32;13.00;76.00
23713;DHT22;12035;49.978;8.298;2022-12-24T05:47:29;13.00;76.00
23713;DHT22;12035;49.978;8.298;2022-12-24T05:52:27;13.00;76.00
23713;DHT22;12035;49.978;8.298;2022-12-24T05:57:24;13.00;76.20
23713;DHT22;12035;49.978;8.298;2022-12-24T06:02:21;13.00;76.20
23713;DHT22;12035;49.978;8.298;2022-12-24T06:07:18;13.00;76.30
23713;DHT22;12035;49.978;8.298;2022-12-24T06:12:16;13.00;75.90
23713;DHT22;12035;49.978;8.298;2022-12-24T06:17:13;13.00;76.10
23713;DHT22;12035;49.978;8.298;2022-12-24T06:22:10;13.00;76.00
23713;DHT22;12035;49.978;8.298;2022-12-24T06:27:07;13.00;76.20
23713;DHT22;12035;49.978;8.298;2022-12-24T06:32:06;13.00;76.40
23713;DHT22;12035;49.978;8.298;2022-12-24T06:37:03;13.00;76.50
23713;DHT22;12035;49.978;8.298;2022-12-24T06:42:00;12.90;76.40
23713;DHT22;12035;49.978;8.298;2022-12-24T06:46:57;12.90;76.50
23713;DHT22;12035;49.978;8.298;2022-12-24T06:51:55;12.90;76.60
23713;DHT22;12035;49.978;8.298;2022-12-24T06:56:52;12.80;76.70
23713;DHT22;12035;49.978;8.298;2022-12-24T07:01:49;12.80;76.90
23713;DHT22;12035;49.978;8.298;2022-12-24T07:06:46;12.80;77.00
23713;DHT22;12035;49.978;8.298;2022-12-24T07:11:45;12.80;77.00
23713;DHT22;12035;49.978;8.298;2022-12-24T07:16:41;12.80;77.20
23713;DHT22;12035;49.978;8.298;2022-12-24T07:21:38;12.80;77.20
23713;DHT22;12035;49.978;8.298;2022-12-24T07:26:35;12.80;77.30
23713;DHT22;12035;49.978;8.298;2022-12-24T07:31:33;12.90;77.30
23713;DHT22;12035;49.978;8.298;2022-12-24T07:36:30;12.90;77.30
23713;DHT22;12035;49.978;8.298;2022-12-24T07:41:27;12.90;77.40
23713;DHT22;12035;49.978;8.298;2022-12-24T07:46:24;12.90;77.40
23713;DHT22;12035;49.978;8.298;2022-12-24T07:51:22;12.90;77.30
23713;DHT22;12035;49.978;8.298;2022-12-24T07:56:19;12.90;77.50
23713;DHT22;12035;49.978;8.298;2022-12-24T08:01:17;13.00;77.30
23713;DHT22;12035;49.978;8.298;2022-12-24T08:06:14;13.00;77.50
23713;DHT22;12035;49.978;8.298;2022-12-24T08:11:13;13.00;77.50
23713;DHT22;12035;49.978;8.298;2022-12-24T08:16:10;13.00;77.50
23713;DHT22;12035;49.978;8.298;2022-12-24T08:21:08;13.00;77.50
23713;DHT22;12035;49.978;8.298;2022-12-24T08:26:06;13.00;77.70
23713;DHT22;12035;49.978;8.298;2022-12-24T08:31:06;13.10;77.70
23713;DHT22;12035;49.978;8.298;2022-12-24T08:36:04;13.10;77.70
23713;DHT22;12035;49.978;8.298;2022-12-24T08:41:01;13.10;77.90
23713;DHT22;12035;49.978;8.298;2022-12-24T08:46:01;13.10;78.20
23713;DHT22;12035;49.978;8.298;2022-12-24T08:51:05;13.10;78.50
23713;DHT22;12035;49.978;8.298;2022-12-24T08:56:05;13.10;78.50
23713;DHT22;12035;49.978;8.298;2022-12-24T09:01:09;13.10;78.50
23713;DHT22;12035;49.978;8.298;2022-12-24T09:06:09;13.10;78.60
23713;DHT22;12035;49.978;8.298;2022-12-24T09:11:08;13.10;78.60
23713;DHT22;12035;49.978;8.298;2022-12-24T09:16:07;13.10;78.60
23713;DHT22;12035;49.978;8.298;2022-12-24T09:21:07;13.10;78.70
23713;DHT22;12035;49.978;8.298;2022-12-24T09:26:11;13.00;78.70
23713;DHT22;12035;49.978;8.298;2022-12-24T09:31:10;13.10;78.80
23713;DHT22;12035;49.978;8.298;2022-12-24T09:36:09;13.10;79.00
23713;DHT22;12035;49.978;8.298;2022-12-24T09:41:14;13.10;79.20
23713;DHT22;12035;49.978;8.298;2022-12-24T09:46:20;13.20;79.40
23713;DHT22;12035;49.978;8.298;2022-12-24T09:51:26;13.30;79.50
23713;DHT22;12035;49.978;8.298;2022-12-24T09:56:28;13.30;79.50
23713;DHT22;12035;49.978;8.298;2022-12-24T10:01:28;13.40;80.30
23713;DHT22;12035;49.978;8.298;2022-12-24T10:06:30;13.40;79.60
23713;DHT22;12035;49.978;8.298;2022-12-24T10:11:40;13.50;79.60
23713;DHT22;12035;49.978;8.298;2022-12-24T10:16:46;13.70;79.70
23713;DHT22;12035;49.978;8.298;2022-12-24T10:22:00;13.80;79.60
23713;DHT22;12035;49.978;8.298;2022-12-24T10:27:04;14.00;79.30
23713;DHT22;12035;49.978;8.298;2022-12-24T10:32:15;14.20;79.30
23713;DHT22;12035;49.978;8.298;2022-12-24T10:37:20;14.40;78.60
23713;DHT22;12035;49.978;8.298;2022-12-24T10:42:20;14.60;78.60
23713;DHT22;12035;49.978;8.298;2022-12-24T10:47:21;14.80;78.10
23713;DHT22;12035;49.978;8.298;2022-12-24T10:52:21;14.90;77.50
23713;DHT22;12035;49.978;8.298;2022-12-24T10:57:24;15.10;76.40
23713;DHT22;12035;49.978;8.298;2022-12-24T11:02:27;15.10;76.10
23713;DHT22;12035;49.978;8.298;2022-12-24T11:07:28;15.20;76.00
23713;DHT22;12035;49.978;8.298;2022-12-24T11:12:29;15.20;75.60
23713;DHT22;12035;49.978;8.298;2022-12-24T11:17:27;15.20;75.40
23713;DHT22;12035;49.978;8.298;2022-12-24T11:22:28;15.20;75.20
23713;DHT22;12035;49.978;8.298;2022-12-24T11:27:38;15.20;75.20
23713;DHT22;12035;49.978;8.298;2022-12-24T11:32:36;15.20;75.10
23713;DHT22;12035;49.978;8.298;2022-12-24T11:37:34;15.20;74.90
23713;DHT22;12035;49.978;8.298;2022-12-24T11:42:33;15.10;75.50
23713;DHT22;12035;49.978;8.298;2022-12-24T11:47:33;15.10;75.20
23713;DHT22;12035;49.978;8.298;2022-12-24T11:52:31;15.00;75.40
23713;DHT22;12035;49.978;8.298;2022-12-24T11:57:46;15.00;75.30
23713;DHT22;12035;49.978;8.298;2022-12-24T12:02:48;15.00;75.10
23713;DHT22;12035;49.978;8.298;2022-12-24T12:07:50;15.00;76.00
23713;DHT22;12035;49.978;8.298;2022-12-24T12:12:56;15.00;75.10
23713;DHT22;12035;49.978;8.298;2022-12-24T12:17:59;15.00;75.10
23713;DHT22;12035;49.978;8.298;2022-12-24T12:23:04;15.00;75.20
23713;DHT22;12035;49.978;8.298;2022-12-24T12:28:17;15.00;75.20
23713;DHT22;12035;49.978;8.298;2022-12-24T12:33:21;15.00;74.90
23713;DHT22;12035;49.978;8.298;2022-12-24T12:38:23;14.90;74.90
23713;DHT22;12035;49.978;8.298;2022-12-24T12:43:34;15.00;75.20
23713;DHT22;12035;49.978;8.298;2022-12-24T12:48:52;15.00;75.30
23713;DHT22;12035;49.978;8.298;2022-12-24T12:54:12;15.00;75.40
23713;DHT22;12035;49.978;8.298;2022-12-24T12:59:19;15.00;76.00
23713;DHT22;12035;49.978;8.298;2022-12-24T13:04:46;15.00;75.40
23713;DHT22;12035;49.978;8.298;2022-12-24T13:10:06;15.10;75.40
23713;DHT22;12035;49.978;8.298;2022-12-24T13:15:44;15.00;74.90
23713;DHT22;12035;49.978;8.298;2022-12-24T13:20:47;15.10;74.90
23713;DHT22;12035;49.978;8.298;2022-12-24T13:25:48;15.10;75.00
23713;DHT22;12035;49.978;8.298;2022-12-24T13:30:49;15.00;75.10
23713;DHT22;12035;49.978;8.298;2022-12-24T13:35:57;15.00;75.20
23713;DHT22;12035;49.978;8.298;2022-12-24T13:40:55;15.00;75.10
23713;DHT22;12035;49.978;8.298;2022-12-24T13:46:47;15.00;75.00
23713;DHT22;12035;49.978;8.298;2022-12-24T13:51:46;14.90;75.20
23713;DHT22;12035;49.978;8.298;2022-12-24T13:56:45;14.90;74.90
23713;DHT22;12035;49.978;8.298;2022-12-24T14:01:42;14.80;75.10
23713;DHT22;12035;49.978;8.298;2022-12-24T14:06:41;14.60;75.10
23713;DHT22;12035;49.978;8.298;2022-12-24T14:12:13;14.60;75.40
23713;DHT22;12035;49.978;8.298;2022-12-24T14:17:20;14.60;75.60
23713;DHT22;12035;49.978;8.298;2022-12-24T14:22:32;14.60;75.60
23713;DHT22;12035;49.978;8.298;2022-12-24T14:27:37;14.50;75.70
23713;DHT22;12035;49.978;8.298;2022-12-24T14:32:37;14.50;75.70
23713;DHT22;12035;49.978;8.298;2022-12-24T14:37:37;14.50;75.90
23713;DHT22;12035;49.978;8.298;2022-12-24T14:42:40;14.40;75.80
23713;DHT22;12035;49.978;8.298;2022-12-24T14:47:44;14.40;75.90
23713;DHT22;12035;49.978;8.298;2022-12-24T14:52:52;14.40;76.00
23713;DHT22;12035;49.978;8.298;2022-12-24T14:58:20;14.30;76.10
23713;DHT22;12035;49.978;8.298;2022-12-24T15:03:22;14.20;76.10
23713;DHT22;12035;49.978;8.298;2022-12-24T15:08:29;14.10;76.20
23713;DHT22;12035;49.978;8.298;2022-12-24T15:13:33;14.10;76.30
23713;DHT22;12035;49.978;8.298;2022-12-24T15:18:35;14.10;76.30
23713;DHT22;12035;49.978;8.298;2022-12-24T15:23:36;14.00;76.30
23713;DHT22;12035;49.978;8.298;2022-12-24T15:28:41;13.90;76.60
23713;DHT22;12035;49.978;8.298;2022-12-24T15:33:39;13.90;76.90
23713;DHT22;12035;49.978;8.298;2022-12-24T15:38:39;13.90;77.10
23713;DHT22;12035;49.978;8.298;2022-12-24T15:43:38;13.80;77.40
23713;DHT22;12035;49.978;8.298;2022-12-24T15:48:36;13.90;78.20
23713;DHT22;12035;49.978;8.298;2022-12-24T15:53:34;13.90;77.50
23713;DHT22;12035;49.978;8.298;2022-12-24T15:58:40;13.90;77.50
23713;DHT22;12035;49.978;8.298;2022-12-24T16:03:39;13.90;77.40
23713;DHT22;12035;49.978;8.298;2022-12-24T16:08:39;13.90;77.40
23713;DHT22;12035;49.978;8.298;2022-12-24T16:13:39;13.90;77.40
23713;DHT22;12035;49.978;8.298;2022-12-24T16:18:44;13.90;77.40
23713;DHT22;12035;49.978;8.298;2022-12-24T16:23:47;13.90;77.60
23713;DHT22;12035;49.978;8.298;2022-12-24T16:28:46;13.90;77.50
23713;DHT22;12035;49.978;8.298;2022-12-24T16:33:43;13.90;77.40
23713;DHT22;12035;49.978;8.298;2022-12-24T16:38:40;13.90;77.30
23713;DHT22;12035;49.978;8.298;2022-12-24T16:43:59;13.90;78.00
23713;DHT22;12035;49.978;8.298;2022-12-24T16:48:56;13.90;77.20
23713;DHT22;12035;49.978;8.298;2022-12-24T16:53:54;13.80;77.10
23713;DHT22;12035;49.978;8.298;2022-12-24T16:58:50;13.90;77.30
23713;DHT22;12035;49.978;8.298;2022-12-24T17:03:49;13.80;77.30
23713;DHT22;12035;49.978;8.298;2022-12-24T17:08:47;13.90;77.20
23713;DHT22;12035;49.978;8.298;2022-12-24T17:13:44;13.90;77.30
23713;DHT22;12035;49.978;8.298;2022-12-24T17:18:41;13.80;77.40
23713;DHT22;12035;49.978;8.298;2022-12-24T17:23:40;13.80;77.60
23713;DHT22;12035;49.978;8.298;2022-12-24T17:28:37;13.80;77.80
23713;DHT22;12035;49.978;8.298;2022-12-24T17:33:35;13.70;77.90
23713;DHT22;12035;49.978;8.298;2022-12-24T17:38:32;13.70;78.10
23713;DHT22;12035;49.978;8.298;2022-12-24T17:43:31;13.70;78.10
23713;DHT22;12035;49.978;8.298;2022-12-24T17:48:29;13.70;78.20
23713;DHT22;12035;49.978;8.298;2022-12-24T17:53:25;13.70;78.20
23713;DHT22;12035;49.978;8.298;2022-12-24T17:58:22;13.70;78.20
23713;DHT22;12035;49.978;8.298;2022-12-24T18:03:21;13.70;78.10
23713;DHT22;12035;49.978;8.298;2022-12-24T18:08:19;13.70;78.20
23713;DHT22;12035;49.978;8.298;2022-12-24T18:13:16;13.70;78.30
23713;DHT22;12035;49.978;8.298;2022-12-24T18:18:12;13.60;78.30
23713;DHT22;12035;49.978;8.298;2022-12-24T18:23:11;13.60;78.30
23713;DHT22;12035;49.978;8.298;2022-12-24T18:28:08;13.60;78.10
23713;DHT22;12035;49.978;8.298;2022-12-24T18:33:05;13.60;78.20
23713;DHT22;12035;49.978;8.298;2022-12-24T18:38:02;13.60;78.20
23713;DHT22;12035;49.978;8.298;2022-12-24T18:43:00;13.60;78.30
23713;DHT22;12035;49.978;8.298;2022-12-24T18:47:57;13.60;78.20
23713;DHT22;12035;49.978;8.298;2022-12-24T18:52:54;13.60;78.20
23713;DHT22;12035;49.978;8.298;2022-12-24T18:57:51;13.50;78.20
23713;DHT22;12035;49.978;8.298;2022-12-24T19:02:50;13.50;78.20
23713;DHT22;12035;49.978;8.298;2022-12-24T19:07:47;13.50;78.40
23713;DHT22;12035;49.978;8.298;2022-12-24T19:12:44;13.50;78.50
23713;DHT22;12035;49.978;8.298;2022-12-24T19:17:41;13.50;78.50
23713;DHT22;12035;49.978;8.298;2022-12-24T19:22:39;13.50;78.30
23713;DHT22;12035;49.978;8.298;2022-12-24T19:27:36;13.50;78.30
23713;DHT22;12035;49.978;8.298;2022-12-24T19:32:33;13.50;78.30
23713;DHT22;12035;49.978;8.298;2022-12-24T19:37:30;13.50;78.30
23713;DHT22;12035;49.978;8.298;2022-12-24T19:42:28;13.40;78.30
23713;DHT22;12035;49.978;8.298;2022-12-24T19:47:26;13.40;78.50
23713;DHT22;12035;49.978;8.298;2022-12-24T19:52:23;13.40;78.80
23713;DHT22;12035;49.978;8.298;2022-12-24T19:57:20;13.40;78.80
23713;DHT22;12035;49.978;8.298;2022-12-24T20:02:18;13.30;78.80
23713;DHT22;12035;49.978;8.298;2022-12-24T20:07:15;13.30;79.00
23713;DHT22;12035;49.978;8.298;2022-12-24T20:12:12;13.30;79.00
23713;DHT22;12035;49.978;8.298;2022-12-24T20:17:09;13.40;79.20
23713;DHT22;12035;49.978;8.298;2022-12-24T20:22:07;13.40;79.20
23713;DHT22;12035;49.978;8.298;2022-12-24T20:27:05;13.40;79.00
23713;DHT22;12035;49.978;8.298;2022-12-24T20:32:04;13.40;79.00
23713;DHT22;12035;49.978;8.298;2022-12-24T20:37:01;13.40;79.10
23713;DHT22;12035;49.978;8.298;2022-12-24T20:41:59;13.40;79.20
23713;DHT22;12035;49.978;8.298;2022-12-24T20:46:57;13.30;79.20
23713;DHT22;12035;49.978;8.298;2022-12-24T20:51:55;13.10;79.30
23713;DHT22;12035;49.978;8.298;2022-12-24T20:56:51;13.10;79.50
23713;DHT22;12035;49.978;8.298;2022-12-24T21:01:50;13.00;79.60
23713;DHT22;12035;49.978;8.298;2022-12-24T21:06:47;13.00;79.80
23713;DHT22;12035;49.978;8.298;2022-12-24T21:11:44;13.00;80.00
23713;DHT22;12035;49.978;8.298;2022-12-24T21:17:00;13.10;80.00
23713;DHT22;12035;49.978;8.298;2022-12-24T21:21:57;13.10;80.00
23713;DHT22;12035;49.978;8.298;2022-12-24T21:26:54;13.10;79.80
23713;DHT22;12035;49.978;8.298;2022-12-24T21:31:51;13.10;79.80
23713;DHT22;12035;49.978;8.298;2022-12-24T21:36:49;13.10;79.70
23713;DHT22;12035;49.978;8.298;2022-12-24T21:41:46;13.10;79.60
23713;DHT22;12035;49.978;8.298;2022-12-24T21:46:43;13.00;79.60
23713;DHT22;12035;49.978;8.298;2022-12-24T21:51:41;13.00;79.70
23713;DHT22;12035;49.978;8.298;2022-12-24T21:56:42;13.00;79.60
23713;DHT22;12035;49.978;8.298;2022-12-24T22:01:57;12.90;79.80
23713;DHT22;12035;49.978;8.298;2022-12-24T22:06:54;12.90;80.00
23713;DHT22;12035;49.978;8.298;2022-12-24T22:12:10;12.80;79.90
23713;DHT22;12035;49.978;8.298;2022-12-24T22:17:07;12.80;80.00
23713;DHT22;12035;49.978;8.298;2022-12-24T22:22:04;12.80;80.00
23713;DHT22;12035;49.978;8.298;2022-12-24T22:27:01;12.80;80.00
23713;DHT22;12035;49.978;8.298;2022-12-24T22:32:00;12.70;80.10
23713;DHT22;12035;49.978;8.298;2022-12-24T22:36:57;12.70;80.30
23713;DHT22;12035;49.978;8.298;2022-12-24T22:41:54;12.70;80.40
23713;DHT22;12035;49.978;8.298;2022-12-24T22:46:52;12.70;80.50
23713;DHT22;12035;49.978;8.298;2022-12-24T22:51:50;12.70;80.60
23713;DHT22;12035;49.978;8.298;2022-12-24T22:56:47;12.70;80.60
23713;DHT22;12035;49.978;8.298;2022-12-24T23:01:46;12.70;80.50
23713;DHT22;12035;49.978;8.298;2022-12-24T23:06:43;12.80;80.60
23713;DHT22;12035;49.978;8.298;2022-12-24T23:11:42;12.80;80.60
23713;DHT22;12035;49.978;8.298;2022-12-24T23:16:40;12.80;80.60
23713;DHT22;12035;49.978;8.298;2022-12-24T23:21:36;12.80;80.40
23713;DHT22;12035;49.978;8.298;2022-12-24T23:26:33;12.80;80.30
23713;DHT22;12035;49.978;8.298;2022-12-24T23:31:32;12.80;80.00
23713;DHT22;12035;49.978;8.298;2022-12-24T23:36:32;12.80;80.20
23713;DHT22;12035;49.978;8.298;2022-12-24T23:41:29;12.80;80.30
23713;DHT22;12035;49.978;8.298;2022-12-24T23:46:26;12.80;80.40
23713;DHT22;12035;49.978;8.298;2022-12-24T23:51:26;12.70;81.20
23713;DHT22;12035;49.978;8.298;2022-12-24T23:56:24;12.70;80.60
